IGO091 VECC-VOMM
Flight info
| Callsign | IGO091 |
|---|---|
| Flight time | 2h 10m |
| Altitude | 32000 |
| Route | KAKID2C KAKID A465 SADGU Q11 GURAS GURAS2F |
| Aircraft | A21N/M-SDE2E3FGHIRWXY/LB1 |
Departure
| Time | 2026-04-21 16:58 |
|---|---|
| Airport | Netaji Subhash Chandra Bose International Airport (VECC) |
Arrival
| Time | 2026-04-21 19:08 |
|---|---|
| Airport | Chennai International Airport (VOMM) |
| Time | Latitude | Longitude | Altitude | Speed | Heading |
|---|---|---|---|---|---|
| 2026-04-21 16:23 | 22.64342 | 88.44066 | 26 ft | 0 kts | 276° |
| 2026-04-21 16:42 | 22.64340 | 88.44083 | 26 ft | 4 kts | 279° |
| 2026-04-21 16:42 | 22.64334 | 88.44111 | 26 ft | 4 kts | 290° |
| 2026-04-21 16:42 | 22.64323 | 88.44137 | 26 ft | 4 kts | 313° |
| 2026-04-21 16:43 | 22.64304 | 88.44149 | 26 ft | 2 kts | 5° |
| 2026-04-21 16:43 | 22.64302 | 88.44149 | 26 ft | 0 kts | 6° |
| 2026-04-21 16:46 | 22.64303 | 88.44149 | 26 ft | 0 kts | 6° |
| 2026-04-21 16:46 | 22.64305 | 88.44149 | 26 ft | 1 kts | 6° |
| 2026-04-21 16:46 | 22.64320 | 88.44151 | 26 ft | 5 kts | 6° |
| 2026-04-21 16:47 | 22.64388 | 88.44158 | 26 ft | 14 kts | 6° |
| 2026-04-21 16:47 | 22.64516 | 88.44174 | 27 ft | 22 kts | 6° |
| 2026-04-21 16:47 | 22.64687 | 88.44193 | 27 ft | 28 kts | 5° |
| 2026-04-21 16:47 | 22.64903 | 88.44220 | 27 ft | 24 kts | 7° |
| 2026-04-21 16:48 | 22.65026 | 88.44233 | 27 ft | 17 kts | 6° |
| 2026-04-21 16:48 | 22.65060 | 88.44263 | 26 ft | 4 kts | 67° |
| 2026-04-21 16:48 | 22.65071 | 88.44292 | 26 ft | 4 kts | 70° |
| 2026-04-21 16:48 | 22.65081 | 88.44322 | 26 ft | 4 kts | 70° |
| 2026-04-21 16:49 | 22.65093 | 88.44356 | 27 ft | 5 kts | 68° |
| 2026-04-21 16:49 | 22.65120 | 88.44379 | 27 ft | 6 kts | 19° |
| 2026-04-21 16:49 | 22.65170 | 88.44386 | 27 ft | 8 kts | 6° |
| 2026-04-21 16:49 | 22.65189 | 88.44388 | 27 ft | 9 kts | 6° |
| 2026-04-21 16:50 | 22.65192 | 88.44389 | 27 ft | 9 kts | 6° |
| 2026-04-21 16:50 | 22.65277 | 88.44398 | 27 ft | 15 kts | 6° |
| 2026-04-21 16:50 | 22.65400 | 88.44411 | 27 ft | 20 kts | 6° |
| 2026-04-21 16:50 | 22.65503 | 88.44424 | 27 ft | 21 kts | 6° |
| 2026-04-21 16:51 | 22.65562 | 88.44431 | 27 ft | 21 kts | 6° |
| 2026-04-21 16:52 | 22.65676 | 88.44445 | 27 ft | 9 kts | 6° |
| 2026-04-21 16:52 | 22.65739 | 88.44452 | 27 ft | 9 kts | 6° |
| 2026-04-21 16:52 | 22.65778 | 88.44458 | 27 ft | 8 kts | 22° |
| 2026-04-21 16:52 | 22.65877 | 88.44524 | 28 ft | 17 kts | 32° |
| 2026-04-21 16:53 | 22.65994 | 88.44604 | 29 ft | 23 kts | 32° |
| 2026-04-21 16:53 | 22.66165 | 88.44655 | 27 ft | 29 kts | 5° |
| 2026-04-21 16:53 | 22.66386 | 88.44680 | 26 ft | 34 kts | 8° |
| 2026-04-21 16:53 | 22.66527 | 88.44712 | 28 ft | 12 kts | 35° |
| 2026-04-21 16:54 | 22.66573 | 88.44768 | 30 ft | 9 kts | 50° |
| 2026-04-21 16:54 | 22.66600 | 88.44804 | 27 ft | 0 kts | 51° |
| 2026-04-21 16:55 | 22.66601 | 88.44805 | 27 ft | 1 kts | 51° |
| 2026-04-21 16:56 | 22.66626 | 88.44839 | 28 ft | 10 kts | 51° |
| 2026-04-21 16:56 | 22.66675 | 88.44908 | 28 ft | 5 kts | 73° |
| 2026-04-21 16:56 | 22.66668 | 88.44918 | 28 ft | 2 kts | 164° |
| 2026-04-21 16:56 | 22.66649 | 88.44919 | 28 ft | 6 kts | 185° |
| 2026-04-21 16:57 | 22.66511 | 88.44902 | 28 ft | 46 kts | 186° |
| 2026-04-21 16:57 | 22.66010 | 88.44845 | 31 ft | 98 kts | 186° |
| 2026-04-21 16:57 | 22.65150 | 88.44748 | 29 ft | 149 kts | 187° |
| 2026-04-21 16:57 | 22.64053 | 88.44614 | 320 ft | 156 kts | 186° |
| 2026-04-21 16:58 | 22.62980 | 88.44462 | 706 ft | 160 kts | 188° |
| 2026-04-21 16:58 | 22.61493 | 88.44231 | 1034 ft | 159 kts | 189° |
| 2026-04-21 16:58 | 22.60381 | 88.44068 | 1320 ft | 162 kts | 189° |
| 2026-04-21 16:58 | 22.59634 | 88.43961 | 1671 ft | 159 kts | 189° |
| 2026-04-21 16:59 | 22.58492 | 88.43799 | 1897 ft | 178 kts | 189° |
| 2026-04-21 16:59 | 22.57192 | 88.43608 | 2080 ft | 198 kts | 193° |
| 2026-04-21 16:59 | 22.55954 | 88.42887 | 2203 ft | 216 kts | 230° |
| 2026-04-21 16:59 | 22.55431 | 88.41310 | 2451 ft | 236 kts | 265° |
| 2026-04-21 17:00 | 22.55477 | 88.39504 | 2962 ft | 242 kts | 271° |
| 2026-04-21 17:00 | 22.55581 | 88.37684 | 3613 ft | 242 kts | 270° |
| 2026-04-21 17:00 | 22.55626 | 88.35881 | 4262 ft | 242 kts | 265° |
| 2026-04-21 17:00 | 22.55317 | 88.34089 | 4833 ft | 244 kts | 248° |
| 2026-04-21 17:01 | 22.54427 | 88.32532 | 5430 ft | 247 kts | 226° |
| 2026-04-21 17:01 | 22.53086 | 88.31333 | 6002 ft | 252 kts | 218° |
| 2026-04-21 17:01 | 22.51624 | 88.30261 | 6586 ft | 255 kts | 216° |
| 2026-04-21 17:01 | 22.50124 | 88.29202 | 7146 ft | 259 kts | 216° |
| 2026-04-21 17:02 | 22.48626 | 88.28150 | 7716 ft | 261 kts | 216° |
| 2026-04-21 17:02 | 22.47090 | 88.27069 | 8305 ft | 265 kts | 216° |
| 2026-04-21 17:02 | 22.45535 | 88.25972 | 8906 ft | 268 kts | 216° |
| 2026-04-21 17:02 | 22.43963 | 88.24863 | 9522 ft | 271 kts | 216° |
| 2026-04-21 17:03 | 22.42374 | 88.23741 | 10102 ft | 273 kts | 216° |
| 2026-04-21 17:03 | 22.40780 | 88.22616 | 10703 ft | 275 kts | 216° |
| 2026-04-21 17:03 | 22.39174 | 88.21482 | 11337 ft | 276 kts | 217° |
| 2026-04-21 17:03 | 22.37561 | 88.20343 | 11982 ft | 278 kts | 217° |
| 2026-04-21 17:04 | 22.35935 | 88.19196 | 12668 ft | 279 kts | 217° |
| 2026-04-21 17:04 | 22.34302 | 88.18044 | 13352 ft | 281 kts | 217° |
| 2026-04-21 17:04 | 22.32659 | 88.16884 | 13965 ft | 283 kts | 217° |
| 2026-04-21 17:04 | 22.31005 | 88.15717 | 14556 ft | 285 kts | 217° |
| 2026-04-21 17:05 | 22.29360 | 88.14557 | 15130 ft | 286 kts | 217° |
| 2026-04-21 17:05 | 22.27688 | 88.13379 | 15724 ft | 288 kts | 217° |
| 2026-04-21 17:05 | 22.26005 | 88.12192 | 16313 ft | 290 kts | 217° |
| 2026-04-21 17:05 | 22.24311 | 88.10998 | 16891 ft | 292 kts | 217° |
| 2026-04-21 17:06 | 22.22606 | 88.09798 | 17465 ft | 294 kts | 217° |
| 2026-04-21 17:06 | 22.20889 | 88.08590 | 18032 ft | 296 kts | 217° |
| 2026-04-21 17:06 | 22.19155 | 88.07369 | 18528 ft | 298 kts | 217° |
| 2026-04-21 17:06 | 22.17411 | 88.06142 | 19034 ft | 300 kts | 217° |
| 2026-04-21 17:07 | 22.15657 | 88.04908 | 19524 ft | 302 kts | 217° |
| 2026-04-21 17:07 | 22.13886 | 88.03663 | 19993 ft | 305 kts | 217° |
| 2026-04-21 17:07 | 22.12097 | 88.02405 | 20460 ft | 308 kts | 217° |
| 2026-04-21 17:07 | 22.10293 | 88.01137 | 20924 ft | 311 kts | 217° |
| 2026-04-21 17:08 | 22.08472 | 87.99857 | 21381 ft | 313 kts | 217° |
| 2026-04-21 17:08 | 22.06638 | 87.98569 | 21824 ft | 316 kts | 217° |
| 2026-04-21 17:08 | 22.04788 | 87.97270 | 22270 ft | 319 kts | 217° |
| 2026-04-21 17:08 | 22.02949 | 87.95979 | 22696 ft | 321 kts | 217° |
| 2026-04-21 17:09 | 21.99168 | 87.93326 | 23491 ft | 327 kts | 217° |
| 2026-04-21 17:09 | 21.97257 | 87.91986 | 23835 ft | 329 kts | 217° |
| 2026-04-21 17:09 | 21.95330 | 87.90635 | 24171 ft | 332 kts | 217° |
| 2026-04-21 17:10 | 21.93389 | 87.89275 | 24520 ft | 334 kts | 217° |
| 2026-04-21 17:10 | 21.91433 | 87.87905 | 24857 ft | 336 kts | 217° |
| 2026-04-21 17:10 | 21.89461 | 87.86524 | 25184 ft | 338 kts | 217° |
| 2026-04-21 17:10 | 21.87477 | 87.85135 | 25508 ft | 341 kts | 217° |
| 2026-04-21 17:11 | 21.85483 | 87.83739 | 25822 ft | 343 kts | 217° |
| 2026-04-21 17:11 | 21.83477 | 87.82336 | 26117 ft | 345 kts | 217° |
| 2026-04-21 17:11 | 21.81479 | 87.80939 | 26418 ft | 347 kts | 217° |
| 2026-04-21 17:11 | 21.79438 | 87.79512 | 26703 ft | 350 kts | 217° |
| 2026-04-21 17:12 | 21.77398 | 87.78087 | 27071 ft | 349 kts | 217° |
| 2026-04-21 17:12 | 21.75365 | 87.76667 | 27403 ft | 349 kts | 217° |
| 2026-04-21 17:12 | 21.73319 | 87.75237 | 27651 ft | 352 kts | 217° |
| 2026-04-21 17:12 | 21.71257 | 87.73797 | 27885 ft | 354 kts | 217° |
| 2026-04-21 17:13 | 21.69186 | 87.72351 | 28131 ft | 356 kts | 217° |
| 2026-04-21 17:13 | 21.67105 | 87.70900 | 28368 ft | 358 kts | 217° |
| 2026-04-21 17:13 | 21.65007 | 87.69435 | 28527 ft | 361 kts | 217° |
| 2026-04-21 17:13 | 21.62891 | 87.67960 | 28726 ft | 364 kts | 217° |
| 2026-04-21 17:14 | 21.60787 | 87.66494 | 28962 ft | 365 kts | 217° |
| 2026-04-21 17:14 | 21.58623 | 87.64987 | 29188 ft | 367 kts | 217° |
| 2026-04-21 17:14 | 21.56502 | 87.63510 | 29398 ft | 368 kts | 217° |
| 2026-04-21 17:14 | 21.54342 | 87.62006 | 29594 ft | 370 kts | 217° |
| 2026-04-21 17:15 | 21.52174 | 87.60497 | 29808 ft | 372 kts | 217° |
| 2026-04-21 17:15 | 21.49997 | 87.58983 | 29990 ft | 373 kts | 217° |
| 2026-04-21 17:15 | 21.47817 | 87.57467 | 30166 ft | 374 kts | 217° |
| 2026-04-21 17:15 | 21.45631 | 87.55947 | 30336 ft | 375 kts | 217° |
| 2026-04-21 17:16 | 21.43438 | 87.54424 | 30606 ft | 372 kts | 217° |
| 2026-04-21 17:16 | 21.41291 | 87.52933 | 30855 ft | 371 kts | 217° |
| 2026-04-21 17:16 | 21.39119 | 87.51424 | 31000 ft | 373 kts | 217° |
| 2026-04-21 17:16 | 21.38714 | 87.51142 | 31025 ft | 373 kts | 217° |
| 2026-04-21 17:17 | 21.36521 | 87.49620 | 31168 ft | 375 kts | 217° |
| 2026-04-21 17:17 | 21.34664 | 87.48331 | 31289 ft | 376 kts | 217° |
| 2026-04-21 17:17 | 21.33162 | 87.47289 | 31399 ft | 377 kts | 217° |
| 2026-04-21 17:17 | 21.32084 | 87.46541 | 31473 ft | 378 kts | 217° |
| 2026-04-21 17:18 | 21.29899 | 87.45026 | 31632 ft | 379 kts | 217° |
| 2026-04-21 17:18 | 21.27683 | 87.43490 | 31757 ft | 380 kts | 217° |
| 2026-04-21 17:18 | 21.23179 | 87.40368 | 31771 ft | 390 kts | 216° |
| 2026-04-21 17:19 | 21.18555 | 87.37166 | 31767 ft | 400 kts | 216° |
| 2026-04-21 17:19 | 21.13844 | 87.33908 | 31762 ft | 404 kts | 216° |
| 2026-04-21 17:20 | 21.09113 | 87.30639 | 31777 ft | 404 kts | 216° |
| 2026-04-21 17:20 | 21.04414 | 87.27394 | 31775 ft | 405 kts | 216° |
| 2026-04-21 17:21 | 21.00970 | 87.25018 | 31766 ft | 405 kts | 216° |
| 2026-04-21 17:21 | 20.96228 | 87.21747 | 31786 ft | 405 kts | 216° |
| 2026-04-21 17:22 | 20.91497 | 87.18486 | 31780 ft | 405 kts | 216° |
| 2026-04-21 17:22 | 20.86792 | 87.15246 | 31782 ft | 405 kts | 216° |
| 2026-04-21 17:23 | 20.82054 | 87.11985 | 31778 ft | 405 kts | 216° |
| 2026-04-21 17:23 | 20.77313 | 87.08725 | 31769 ft | 405 kts | 216° |
| 2026-04-21 17:24 | 20.72545 | 87.05448 | 31782 ft | 408 kts | 216° |
| 2026-04-21 17:24 | 20.67762 | 87.02164 | 31785 ft | 409 kts | 216° |
| 2026-04-21 17:25 | 20.63241 | 86.98547 | 31789 ft | 405 kts | 225° |
| 2026-04-21 17:25 | 20.59307 | 86.94244 | 31787 ft | 404 kts | 228° |
| 2026-04-21 17:26 | 20.55520 | 86.89834 | 31781 ft | 402 kts | 229° |
| 2026-04-21 17:26 | 20.51769 | 86.85472 | 31781 ft | 401 kts | 229° |
| 2026-04-21 17:27 | 20.47964 | 86.81095 | 31781 ft | 401 kts | 228° |
| 2026-04-21 17:27 | 20.44156 | 86.76741 | 31765 ft | 401 kts | 228° |
| 2026-04-21 17:28 | 20.40337 | 86.72383 | 31781 ft | 403 kts | 228° |
| 2026-04-21 17:28 | 20.36504 | 86.68011 | 31783 ft | 404 kts | 228° |
| 2026-04-21 17:29 | 20.32697 | 86.63669 | 31775 ft | 404 kts | 228° |
| 2026-04-21 17:29 | 20.28857 | 86.59294 | 31777 ft | 403 kts | 228° |
| 2026-04-21 17:30 | 20.25017 | 86.54921 | 31780 ft | 402 kts | 228° |
| 2026-04-21 17:30 | 20.21219 | 86.50601 | 31779 ft | 401 kts | 228° |
| 2026-04-21 17:31 | 20.17406 | 86.46266 | 31772 ft | 400 kts | 228° |
| 2026-04-21 17:31 | 20.13591 | 86.41933 | 31773 ft | 400 kts | 228° |
| 2026-04-21 17:32 | 20.09782 | 86.37609 | 31763 ft | 400 kts | 227° |
| 2026-04-21 17:32 | 20.05955 | 86.33269 | 31772 ft | 403 kts | 228° |
| 2026-04-21 17:33 | 20.02175 | 86.28892 | 31774 ft | 404 kts | 229° |
| 2026-04-21 17:33 | 19.98417 | 86.24457 | 31774 ft | 404 kts | 229° |
| 2026-04-21 17:34 | 19.94659 | 86.20020 | 31778 ft | 404 kts | 229° |
| 2026-04-21 17:34 | 19.90883 | 86.15580 | 31773 ft | 403 kts | 228° |
| 2026-04-21 17:35 | 19.87073 | 86.11218 | 31776 ft | 402 kts | 227° |
| 2026-04-21 17:35 | 19.83247 | 86.06895 | 31773 ft | 402 kts | 227° |
| 2026-04-21 17:36 | 19.79440 | 86.02595 | 31776 ft | 402 kts | 227° |
| 2026-04-21 17:36 | 19.75593 | 85.98243 | 31772 ft | 402 kts | 227° |
| 2026-04-21 17:37 | 19.71781 | 85.93930 | 31783 ft | 403 kts | 227° |
| 2026-04-21 17:37 | 19.67934 | 85.89580 | 31783 ft | 404 kts | 227° |
| 2026-04-21 17:38 | 19.64082 | 85.85228 | 31775 ft | 404 kts | 227° |
| 2026-04-21 17:38 | 19.60232 | 85.80882 | 31782 ft | 404 kts | 227° |
| 2026-04-21 17:39 | 19.56402 | 85.76560 | 31782 ft | 404 kts | 227° |
| 2026-04-21 17:39 | 19.52549 | 85.72218 | 31783 ft | 404 kts | 227° |
| 2026-04-21 17:40 | 19.48691 | 85.67872 | 31782 ft | 404 kts | 227° |
| 2026-04-21 17:40 | 19.44856 | 85.63556 | 31787 ft | 404 kts | 227° |
| 2026-04-21 17:41 | 19.40997 | 85.59215 | 31788 ft | 404 kts | 227° |
| 2026-04-21 17:41 | 19.37134 | 85.54873 | 31787 ft | 406 kts | 227° |
| 2026-04-21 17:42 | 19.33259 | 85.50522 | 31795 ft | 406 kts | 227° |
| 2026-04-21 17:42 | 19.29379 | 85.46167 | 31794 ft | 406 kts | 227° |
| 2026-04-21 17:43 | 19.25219 | 85.42161 | 31805 ft | 407 kts | 221° |
| 2026-04-21 17:43 | 19.20867 | 85.38354 | 31791 ft | 406 kts | 220° |
| 2026-04-21 17:44 | 19.16481 | 85.34592 | 31800 ft | 405 kts | 220° |
| 2026-04-21 17:44 | 19.12094 | 85.30831 | 31799 ft | 405 kts | 220° |
| 2026-04-21 17:45 | 19.07741 | 85.27089 | 31796 ft | 405 kts | 220° |
| 2026-04-21 17:45 | 19.03364 | 85.23324 | 31807 ft | 407 kts | 220° |
| 2026-04-21 17:46 | 18.99711 | 85.20183 | 31807 ft | 408 kts | 220° |
| 2026-04-21 17:46 | 18.95308 | 85.16401 | 31803 ft | 408 kts | 220° |
| 2026-04-21 17:47 | 18.90903 | 85.12619 | 31808 ft | 408 kts | 220° |
| 2026-04-21 17:47 | 18.86502 | 85.08844 | 31804 ft | 408 kts | 220° |
| 2026-04-21 17:48 | 18.82094 | 85.05065 | 31805 ft | 408 kts | 220° |
| 2026-04-21 17:48 | 18.77691 | 85.01293 | 31813 ft | 407 kts | 220° |
| 2026-04-21 17:49 | 18.73324 | 84.97552 | 31812 ft | 407 kts | 220° |
| 2026-04-21 17:49 | 18.68941 | 84.93776 | 31812 ft | 407 kts | 220° |
| 2026-04-21 17:50 | 18.64561 | 84.89995 | 31810 ft | 407 kts | 220° |
| 2026-04-21 17:50 | 18.60178 | 84.86214 | 31816 ft | 407 kts | 220° |
| 2026-04-21 17:51 | 18.55796 | 84.82440 | 31816 ft | 407 kts | 220° |
| 2026-04-21 17:51 | 18.51415 | 84.78669 | 31816 ft | 407 kts | 220° |
| 2026-04-21 17:52 | 18.47060 | 84.74924 | 31817 ft | 407 kts | 220° |
| 2026-04-21 17:52 | 18.42675 | 84.71155 | 31816 ft | 407 kts | 220° |
| 2026-04-21 17:53 | 18.38293 | 84.67391 | 31815 ft | 407 kts | 220° |
| 2026-04-21 17:53 | 18.33898 | 84.63618 | 31815 ft | 408 kts | 220° |
| 2026-04-21 17:54 | 18.29494 | 84.59840 | 31818 ft | 408 kts | 220° |
| 2026-04-21 17:54 | 18.25085 | 84.56062 | 31817 ft | 409 kts | 220° |
| 2026-04-21 17:55 | 18.20701 | 84.52306 | 31825 ft | 409 kts | 220° |
| 2026-04-21 17:55 | 18.16293 | 84.48533 | 31825 ft | 408 kts | 220° |
| 2026-04-21 17:56 | 18.11884 | 84.44762 | 31821 ft | 409 kts | 220° |
| 2026-04-21 17:56 | 18.07470 | 84.40988 | 31825 ft | 409 kts | 220° |
| 2026-04-21 17:57 | 18.03054 | 84.37215 | 31825 ft | 409 kts | 220° |
| 2026-04-21 17:57 | 17.98639 | 84.33446 | 31823 ft | 409 kts | 220° |
| 2026-04-21 17:58 | 17.94241 | 84.29694 | 31825 ft | 410 kts | 220° |
| 2026-04-21 17:58 | 17.89817 | 84.25922 | 31830 ft | 409 kts | 220° |
| 2026-04-21 17:59 | 17.85399 | 84.22158 | 31830 ft | 409 kts | 220° |
| 2026-04-21 17:59 | 17.80971 | 84.18388 | 31825 ft | 409 kts | 220° |
| 2026-04-21 18:00 | 17.76551 | 84.14626 | 31834 ft | 409 kts | 220° |
| 2026-04-21 18:00 | 17.72134 | 84.10870 | 31834 ft | 409 kts | 220° |
| 2026-04-21 18:01 | 17.67743 | 84.07139 | 31833 ft | 409 kts | 220° |
| 2026-04-21 18:01 | 17.63320 | 84.03383 | 31832 ft | 409 kts | 219° |
| 2026-04-21 18:02 | 17.58883 | 83.99617 | 31837 ft | 410 kts | 219° |
| 2026-04-21 18:02 | 17.54446 | 83.95854 | 31837 ft | 410 kts | 219° |
| 2026-04-21 18:03 | 17.50032 | 83.92110 | 31837 ft | 410 kts | 220° |
| 2026-04-21 18:03 | 17.45617 | 83.88320 | 31833 ft | 410 kts | 220° |
| 2026-04-21 18:04 | 17.41218 | 83.84518 | 31831 ft | 409 kts | 220° |
| 2026-04-21 18:04 | 17.36848 | 83.80745 | 31833 ft | 409 kts | 220° |
| 2026-04-21 18:05 | 17.32444 | 83.76950 | 31835 ft | 409 kts | 220° |
| 2026-04-21 18:05 | 17.28044 | 83.73163 | 31826 ft | 410 kts | 220° |
| 2026-04-21 18:06 | 17.23811 | 83.69522 | 31828 ft | 410 kts | 220° |
| 2026-04-21 18:06 | 17.19652 | 83.65948 | 31830 ft | 410 kts | 220° |
| 2026-04-21 18:07 | 17.15237 | 83.62159 | 31830 ft | 410 kts | 220° |
| 2026-04-21 18:07 | 17.10825 | 83.58374 | 31833 ft | 411 kts | 220° |
| 2026-04-21 18:08 | 17.06405 | 83.54585 | 31843 ft | 411 kts | 220° |
| 2026-04-21 18:08 | 17.01988 | 83.50800 | 31846 ft | 410 kts | 220° |
| 2026-04-21 18:09 | 16.97574 | 83.47020 | 31842 ft | 410 kts | 220° |
| 2026-04-21 18:09 | 16.93162 | 83.43244 | 31840 ft | 410 kts | 219° |
| 2026-04-21 18:10 | 16.88738 | 83.39460 | 31846 ft | 411 kts | 219° |
| 2026-04-21 18:10 | 16.84305 | 83.35671 | 31846 ft | 412 kts | 219° |
| 2026-04-21 18:11 | 16.79872 | 83.31885 | 31849 ft | 412 kts | 219° |
| 2026-04-21 18:11 | 16.75462 | 83.28121 | 31846 ft | 412 kts | 219° |
| 2026-04-21 18:12 | 16.71025 | 83.24336 | 31847 ft | 412 kts | 219° |
| 2026-04-21 18:12 | 16.66580 | 83.20546 | 31847 ft | 412 kts | 219° |
| 2026-04-21 18:13 | 16.62168 | 83.16788 | 31848 ft | 412 kts | 219° |
| 2026-04-21 18:13 | 16.57727 | 83.13006 | 31843 ft | 412 kts | 219° |
| 2026-04-21 18:14 | 16.51063 | 83.07335 | 31849 ft | 413 kts | 219° |
| 2026-04-21 18:15 | 16.46605 | 83.03545 | 31863 ft | 413 kts | 219° |
| 2026-04-21 18:15 | 16.42146 | 82.99756 | 31864 ft | 413 kts | 219° |
| 2026-04-21 18:16 | 16.37723 | 82.96001 | 31850 ft | 413 kts | 219° |
| 2026-04-21 18:16 | 16.33263 | 82.92216 | 31851 ft | 413 kts | 219° |
| 2026-04-21 18:17 | 16.28801 | 82.88432 | 31852 ft | 413 kts | 219° |
| 2026-04-21 18:17 | 16.24362 | 82.84669 | 31851 ft | 413 kts | 219° |
| 2026-04-21 18:18 | 16.19902 | 82.80891 | 31854 ft | 414 kts | 219° |
| 2026-04-21 18:18 | 16.15411 | 82.77089 | 31847 ft | 415 kts | 219° |
| 2026-04-21 18:19 | 16.10955 | 82.73318 | 31860 ft | 415 kts | 219° |
| 2026-04-21 18:19 | 16.07124 | 82.70079 | 31853 ft | 415 kts | 219° |
| 2026-04-21 18:20 | 16.02645 | 82.66294 | 31713 ft | 412 kts | 219° |
| 2026-04-21 18:20 | 16.00431 | 82.64424 | 31265 ft | 405 kts | 219° |
| 2026-04-21 18:20 | 15.98282 | 82.62609 | 30532 ft | 396 kts | 219° |
| 2026-04-21 18:20 | 15.96149 | 82.60808 | 29307 ft | 400 kts | 219° |
| 2026-04-21 18:21 | 15.93984 | 82.58981 | 28185 ft | 400 kts | 219° |
| 2026-04-21 18:21 | 15.91837 | 82.57170 | 27259 ft | 396 kts | 219° |
| 2026-04-21 18:21 | 15.89716 | 82.55381 | 26550 ft | 387 kts | 219° |
| 2026-04-21 18:21 | 15.87648 | 82.53638 | 25885 ft | 379 kts | 219° |
| 2026-04-21 18:22 | 15.85621 | 82.51929 | 25139 ft | 374 kts | 219° |
| 2026-04-21 18:22 | 15.83607 | 82.50231 | 24384 ft | 371 kts | 219° |
| 2026-04-21 18:22 | 15.81605 | 82.48545 | 23673 ft | 368 kts | 220° |
| 2026-04-21 18:22 | 15.79627 | 82.46878 | 22868 ft | 365 kts | 220° |
| 2026-04-21 18:23 | 15.77651 | 82.45214 | 22058 ft | 362 kts | 220° |
| 2026-04-21 18:23 | 15.75737 | 82.43603 | 21330 ft | 357 kts | 220° |
| 2026-04-21 18:23 | 15.73817 | 82.41987 | 20616 ft | 353 kts | 220° |
| 2026-04-21 18:23 | 15.72035 | 82.40489 | 19917 ft | 350 kts | 220° |
| 2026-04-21 18:24 | 15.70141 | 82.38896 | 19136 ft | 349 kts | 220° |
| 2026-04-21 18:24 | 15.68260 | 82.37310 | 18392 ft | 348 kts | 222° |
| 2026-04-21 18:24 | 15.66423 | 82.35677 | 17620 ft | 346 kts | 223° |
| 2026-04-21 18:24 | 15.64632 | 82.34023 | 16950 ft | 342 kts | 224° |
| 2026-04-21 18:25 | 15.62881 | 82.32398 | 16559 ft | 341 kts | 224° |
| 2026-04-21 18:25 | 15.61125 | 82.30768 | 16530 ft | 337 kts | 224° |
| 2026-04-21 18:25 | 15.59377 | 82.29145 | 16759 ft | 337 kts | 223° |
| 2026-04-21 18:25 | 15.57628 | 82.27524 | 16858 ft | 337 kts | 224° |
| 2026-04-21 18:26 | 15.55877 | 82.25903 | 16863 ft | 338 kts | 223° |
| 2026-04-21 18:26 | 15.54119 | 82.24275 | 16951 ft | 340 kts | 223° |
| 2026-04-21 18:26 | 15.52349 | 82.22636 | 17299 ft | 341 kts | 223° |
| 2026-04-21 18:26 | 15.50579 | 82.20998 | 17682 ft | 341 kts | 223° |
| 2026-04-21 18:27 | 15.48809 | 82.19359 | 18023 ft | 342 kts | 223° |
| 2026-04-21 18:27 | 15.47049 | 82.17734 | 18696 ft | 333 kts | 223° |
| 2026-04-21 18:27 | 15.45351 | 82.16166 | 19577 ft | 321 kts | 224° |
| 2026-04-21 18:27 | 15.43727 | 82.14665 | 20305 ft | 316 kts | 224° |
| 2026-04-21 18:28 | 15.42085 | 82.13147 | 20795 ft | 318 kts | 223° |
| 2026-04-21 18:28 | 15.40432 | 82.11618 | 21260 ft | 321 kts | 223° |
| 2026-04-21 18:28 | 15.38756 | 82.10069 | 21681 ft | 325 kts | 223° |
| 2026-04-21 18:28 | 15.37066 | 82.08508 | 22170 ft | 326 kts | 223° |
| 2026-04-21 18:29 | 15.35368 | 82.06940 | 22613 ft | 328 kts | 223° |
| 2026-04-21 18:29 | 15.33657 | 82.05360 | 23072 ft | 330 kts | 223° |
| 2026-04-21 18:29 | 15.31930 | 82.03765 | 23449 ft | 334 kts | 222° |
| 2026-04-21 18:29 | 15.30183 | 82.02154 | 23782 ft | 337 kts | 222° |
| 2026-04-21 18:30 | 15.28428 | 82.00535 | 24146 ft | 339 kts | 222° |
| 2026-04-21 18:30 | 15.26661 | 81.98905 | 24527 ft | 340 kts | 222° |
| 2026-04-21 18:30 | 15.24910 | 81.97290 | 24905 ft | 341 kts | 222° |
| 2026-04-21 18:30 | 15.23127 | 81.95647 | 25271 ft | 343 kts | 221° |
| 2026-04-21 18:31 | 15.21338 | 81.93998 | 25629 ft | 345 kts | 221° |
| 2026-04-21 18:31 | 15.19538 | 81.92339 | 25816 ft | 348 kts | 221° |
| 2026-04-21 18:31 | 15.17723 | 81.90668 | 25859 ft | 348 kts | 221° |
| 2026-04-21 18:31 | 15.15913 | 81.89001 | 25862 ft | 348 kts | 221° |
| 2026-04-21 18:32 | 15.14241 | 81.87461 | 25863 ft | 349 kts | 221° |
| 2026-04-21 18:32 | 15.12429 | 81.85793 | 25862 ft | 349 kts | 221° |
| 2026-04-21 18:32 | 15.10619 | 81.84127 | 25862 ft | 348 kts | 221° |
| 2026-04-21 18:32 | 15.08808 | 81.82461 | 25862 ft | 348 kts | 221° |
| 2026-04-21 18:33 | 15.06995 | 81.80793 | 25861 ft | 348 kts | 221° |
| 2026-04-21 18:33 | 15.05204 | 81.79146 | 25862 ft | 348 kts | 221° |
| 2026-04-21 18:33 | 15.03391 | 81.77479 | 25862 ft | 348 kts | 221° |
| 2026-04-21 18:33 | 15.01581 | 81.75815 | 25862 ft | 348 kts | 221° |
| 2026-04-21 18:34 | 14.99768 | 81.74149 | 25862 ft | 348 kts | 221° |
| 2026-04-21 18:34 | 14.97958 | 81.72485 | 25862 ft | 348 kts | 221° |
| 2026-04-21 18:34 | 14.96756 | 81.71382 | 25862 ft | 348 kts | 221° |
| 2026-04-21 18:34 | 14.94946 | 81.69719 | 25862 ft | 348 kts | 221° |
| 2026-04-21 18:35 | 14.93133 | 81.68054 | 25863 ft | 348 kts | 221° |
| 2026-04-21 18:35 | 14.91323 | 81.66393 | 25862 ft | 348 kts | 221° |
| 2026-04-21 18:35 | 14.89514 | 81.64733 | 25863 ft | 348 kts | 221° |
| 2026-04-21 18:35 | 14.87704 | 81.63071 | 25862 ft | 347 kts | 221° |
| 2026-04-21 18:36 | 14.85896 | 81.61413 | 25861 ft | 347 kts | 221° |
| 2026-04-21 18:36 | 14.84087 | 81.59753 | 25862 ft | 347 kts | 221° |
| 2026-04-21 18:36 | 14.82281 | 81.58098 | 25862 ft | 347 kts | 221° |
| 2026-04-21 18:36 | 14.80473 | 81.56440 | 25862 ft | 347 kts | 221° |
| 2026-04-21 18:37 | 14.78689 | 81.54805 | 25863 ft | 347 kts | 221° |
| 2026-04-21 18:37 | 14.76880 | 81.53147 | 25857 ft | 348 kts | 221° |
| 2026-04-21 18:37 | 14.75066 | 81.51485 | 25862 ft | 349 kts | 221° |
| 2026-04-21 18:37 | 14.73250 | 81.49822 | 25862 ft | 349 kts | 221° |
| 2026-04-21 18:38 | 14.71430 | 81.48155 | 25863 ft | 349 kts | 221° |
| 2026-04-21 18:38 | 14.69609 | 81.46488 | 25862 ft | 349 kts | 221° |
| 2026-04-21 18:38 | 14.67785 | 81.44819 | 25862 ft | 349 kts | 221° |
| 2026-04-21 18:38 | 14.65962 | 81.43150 | 25862 ft | 349 kts | 221° |
| 2026-04-21 18:39 | 14.64160 | 81.41502 | 25863 ft | 349 kts | 221° |
| 2026-04-21 18:39 | 14.62339 | 81.39837 | 25862 ft | 349 kts | 221° |
| 2026-04-21 18:39 | 14.60525 | 81.38178 | 25862 ft | 349 kts | 221° |
| 2026-04-21 18:39 | 14.58704 | 81.36513 | 25862 ft | 349 kts | 221° |
| 2026-04-21 18:40 | 14.56887 | 81.34852 | 25855 ft | 349 kts | 221° |
| 2026-04-21 18:40 | 14.55063 | 81.33186 | 25856 ft | 349 kts | 221° |
| 2026-04-21 18:40 | 14.53245 | 81.31525 | 25857 ft | 349 kts | 221° |
| 2026-04-21 18:40 | 14.51427 | 81.29864 | 25856 ft | 349 kts | 221° |
| 2026-04-21 18:41 | 14.49608 | 81.28203 | 25859 ft | 349 kts | 221° |
| 2026-04-21 18:41 | 14.47792 | 81.26545 | 25856 ft | 348 kts | 221° |
| 2026-04-21 18:41 | 14.45979 | 81.24890 | 25856 ft | 348 kts | 221° |
| 2026-04-21 18:41 | 14.44167 | 81.23237 | 25857 ft | 348 kts | 221° |
| 2026-04-21 18:42 | 14.42353 | 81.21582 | 25858 ft | 348 kts | 221° |
| 2026-04-21 18:42 | 14.40539 | 81.19927 | 25847 ft | 348 kts | 221° |
| 2026-04-21 18:42 | 14.38738 | 81.18284 | 25856 ft | 349 kts | 221° |
| 2026-04-21 18:42 | 14.36917 | 81.16625 | 25856 ft | 350 kts | 221° |
| 2026-04-21 18:43 | 14.35092 | 81.14961 | 25857 ft | 350 kts | 221° |
| 2026-04-21 18:43 | 14.33268 | 81.13299 | 25853 ft | 350 kts | 221° |
| 2026-04-21 18:43 | 14.31441 | 81.11634 | 25854 ft | 350 kts | 221° |
| 2026-04-21 18:43 | 14.29635 | 81.09989 | 25854 ft | 350 kts | 221° |
| 2026-04-21 18:44 | 14.27808 | 81.08325 | 25855 ft | 350 kts | 221° |
| 2026-04-21 18:44 | 14.25985 | 81.06665 | 25853 ft | 350 kts | 221° |
| 2026-04-21 18:44 | 14.24157 | 81.05001 | 25856 ft | 350 kts | 221° |
| 2026-04-21 18:44 | 14.22331 | 81.03340 | 25856 ft | 350 kts | 221° |
| 2026-04-21 18:45 | 14.20506 | 81.01678 | 25856 ft | 350 kts | 221° |
| 2026-04-21 18:45 | 14.18683 | 81.00020 | 25854 ft | 350 kts | 221° |
| 2026-04-21 18:45 | 14.16861 | 80.98363 | 25853 ft | 350 kts | 221° |
| 2026-04-21 18:45 | 14.15036 | 80.96704 | 25854 ft | 349 kts | 221° |
| 2026-04-21 18:46 | 14.13213 | 80.95047 | 25855 ft | 349 kts | 221° |
| 2026-04-21 18:46 | 14.11389 | 80.93389 | 25854 ft | 349 kts | 221° |
| 2026-04-21 18:46 | 14.09561 | 80.91728 | 25854 ft | 350 kts | 221° |
| 2026-04-21 18:46 | 14.07955 | 80.90269 | 25850 ft | 349 kts | 221° |
| 2026-04-21 18:47 | 14.06612 | 80.89050 | 25847 ft | 349 kts | 221° |
| 2026-04-21 18:47 | 14.04792 | 80.87397 | 25848 ft | 349 kts | 221° |
| 2026-04-21 18:47 | 14.02968 | 80.85740 | 25848 ft | 349 kts | 221° |
| 2026-04-21 18:47 | 14.01151 | 80.84082 | 25848 ft | 349 kts | 223° |
| 2026-04-21 18:48 | 13.99496 | 80.82251 | 25849 ft | 349 kts | 231° |
| 2026-04-21 18:48 | 13.98003 | 80.80271 | 25849 ft | 349 kts | 232° |
| 2026-04-21 18:48 | 13.96549 | 80.78266 | 25847 ft | 349 kts | 233° |
| 2026-04-21 18:48 | 13.95100 | 80.76260 | 25848 ft | 349 kts | 233° |
| 2026-04-21 18:49 | 13.93645 | 80.74250 | 25847 ft | 350 kts | 233° |
| 2026-04-21 18:49 | 13.92188 | 80.72241 | 25844 ft | 349 kts | 233° |
| 2026-04-21 18:49 | 13.91225 | 80.70916 | 25678 ft | 348 kts | 233° |
| 2026-04-21 18:49 | 13.89877 | 80.69060 | 25249 ft | 347 kts | 233° |
| 2026-04-21 18:50 | 13.88432 | 80.67075 | 24837 ft | 344 kts | 233° |
| 2026-04-21 18:50 | 13.87001 | 80.65108 | 24426 ft | 342 kts | 233° |
| 2026-04-21 18:50 | 13.85577 | 80.63152 | 24039 ft | 339 kts | 234° |
| 2026-04-21 18:50 | 13.84169 | 80.61219 | 23670 ft | 336 kts | 234° |
| 2026-04-21 18:51 | 13.82777 | 80.59308 | 23291 ft | 332 kts | 234° |
| 2026-04-21 18:51 | 13.81392 | 80.57407 | 22781 ft | 331 kts | 234° |
| 2026-04-21 18:51 | 13.80012 | 80.55513 | 22284 ft | 330 kts | 234° |
| 2026-04-21 18:51 | 13.78638 | 80.53627 | 21844 ft | 327 kts | 234° |
| 2026-04-21 18:52 | 13.77278 | 80.51761 | 21413 ft | 324 kts | 234° |
| 2026-04-21 18:52 | 13.75955 | 80.49947 | 21103 ft | 318 kts | 234° |
| 2026-04-21 18:52 | 13.74621 | 80.48119 | 20529 ft | 321 kts | 234° |
| 2026-04-21 18:52 | 13.73281 | 80.46281 | 20063 ft | 321 kts | 234° |
| 2026-04-21 18:53 | 13.71943 | 80.44447 | 19643 ft | 319 kts | 234° |
| 2026-04-21 18:53 | 13.70759 | 80.42825 | 19287 ft | 317 kts | 234° |
| 2026-04-21 18:53 | 13.69434 | 80.41010 | 18867 ft | 315 kts | 234° |
| 2026-04-21 18:53 | 13.68118 | 80.39207 | 18455 ft | 314 kts | 233° |
| 2026-04-21 18:54 | 13.66799 | 80.37416 | 18026 ft | 314 kts | 232° |
| 2026-04-21 18:54 | 13.65334 | 80.35729 | 17199 ft | 320 kts | 223° |
| 2026-04-21 18:54 | 13.63557 | 80.34290 | 16053 ft | 333 kts | 210° |
| 2026-04-21 18:54 | 13.61473 | 80.33225 | 14905 ft | 345 kts | 198° |
| 2026-04-21 18:55 | 13.59909 | 80.32709 | 14100 ft | 352 kts | 194° |
| 2026-04-21 18:55 | 13.56731 | 80.31868 | 12411 ft | 365 kts | 192° |
| 2026-04-21 18:55 | 13.54382 | 80.31273 | 11099 ft | 373 kts | 192° |
| 2026-04-21 18:55 | 13.51829 | 80.30620 | 9648 ft | 382 kts | 192° |
| 2026-04-21 18:56 | 13.49227 | 80.29947 | 8189 ft | 385 kts | 192° |
| 2026-04-21 18:56 | 13.46677 | 80.29282 | 7393 ft | 369 kts | 192° |
| 2026-04-21 18:56 | 13.44272 | 80.28650 | 7009 ft | 344 kts | 192° |
| 2026-04-21 18:56 | 13.42163 | 80.28095 | 6883 ft | 315 kts | 192° |
| 2026-04-21 18:57 | 13.40130 | 80.27562 | 6857 ft | 290 kts | 192° |
| 2026-04-21 18:57 | 13.38221 | 80.27063 | 6854 ft | 285 kts | 191° |
| 2026-04-21 18:57 | 13.36292 | 80.26562 | 6853 ft | 286 kts | 192° |
| 2026-04-21 18:57 | 13.34359 | 80.26060 | 6849 ft | 286 kts | 192° |
| 2026-04-21 18:58 | 13.32429 | 80.25556 | 6851 ft | 286 kts | 192° |
| 2026-04-21 18:58 | 13.30499 | 80.25053 | 6859 ft | 287 kts | 192° |
| 2026-04-21 18:58 | 13.28565 | 80.24548 | 6860 ft | 286 kts | 192° |
| 2026-04-21 18:58 | 13.26630 | 80.24046 | 6859 ft | 286 kts | 190° |
| 2026-04-21 18:59 | 13.24676 | 80.23692 | 6867 ft | 283 kts | 182° |
| 2026-04-21 18:59 | 13.22755 | 80.23681 | 6865 ft | 269 kts | 171° |
| 2026-04-21 18:59 | 13.20948 | 80.24009 | 6862 ft | 260 kts | 162° |
| 2026-04-21 18:59 | 13.19204 | 80.24496 | 6552 ft | 259 kts | 160° |
| 2026-04-21 19:00 | 13.17497 | 80.25059 | 6172 ft | 256 kts | 153° |
| 2026-04-21 19:00 | 13.16012 | 80.26003 | 5792 ft | 249 kts | 134° |
| 2026-04-21 19:00 | 13.15005 | 80.27409 | 5377 ft | 245 kts | 112° |
| 2026-04-21 19:00 | 13.14625 | 80.29081 | 4941 ft | 245 kts | 91° |
| 2026-04-21 19:01 | 13.14889 | 80.30799 | 4535 ft | 246 kts | 73° |
| 2026-04-21 19:01 | 13.15380 | 80.32468 | 4160 ft | 242 kts | 81° |
| 2026-04-21 19:01 | 13.15438 | 80.34173 | 3911 ft | 240 kts | 102° |
| 2026-04-21 19:01 | 13.14832 | 80.35757 | 3483 ft | 241 kts | 127° |
| 2026-04-21 19:02 | 13.13636 | 80.36882 | 3241 ft | 227 kts | 151° |
| 2026-04-21 19:02 | 13.12201 | 80.37422 | 2953 ft | 218 kts | 169° |
| 2026-04-21 19:02 | 13.10710 | 80.37614 | 2616 ft | 214 kts | 174° |
| 2026-04-21 19:02 | 13.09231 | 80.37727 | 2336 ft | 212 kts | 178° |
| 2026-04-21 19:03 | 13.07772 | 80.37531 | 2276 ft | 214 kts | 199° |
| 2026-04-21 19:03 | 13.06573 | 80.36653 | 2277 ft | 216 kts | 229° |
| 2026-04-21 19:03 | 13.05854 | 80.35295 | 2287 ft | 219 kts | 244° |
| 2026-04-21 19:03 | 13.05304 | 80.33832 | 2280 ft | 220 kts | 246° |
| 2026-04-21 19:04 | 13.04778 | 80.32359 | 2283 ft | 220 kts | 246° |
| 2026-04-21 19:04 | 13.04257 | 80.30914 | 2235 ft | 215 kts | 246° |
| 2026-04-21 19:04 | 13.03756 | 80.29528 | 1952 ft | 200 kts | 246° |
| 2026-04-21 19:04 | 13.03321 | 80.28225 | 1629 ft | 185 kts | 247° |
| 2026-04-21 19:05 | 13.02952 | 80.27017 | 1395 ft | 169 kts | 246° |
| 2026-04-21 19:05 | 13.02607 | 80.25932 | 1190 ft | 153 kts | 243° |
| 2026-04-21 19:05 | 13.02235 | 80.24949 | 870 ft | 143 kts | 239° |
| 2026-04-21 19:05 | 13.01844 | 80.24039 | 677 ft | 140 kts | 244° |
| 2026-04-21 19:06 | 13.01407 | 80.23129 | 520 ft | 142 kts | 237° |
| 2026-04-21 19:06 | 13.01008 | 80.22169 | 477 ft | 150 kts | 241° |
| 2026-04-21 19:06 | 13.00642 | 80.21199 | 418 ft | 142 kts | 246° |
| 2026-04-21 19:06 | 13.00272 | 80.20210 | 328 ft | 152 kts | 245° |
| 2026-04-21 19:07 | 12.99890 | 80.19235 | 220 ft | 143 kts | 249° |
| 2026-04-21 19:07 | 12.99545 | 80.18297 | 93 ft | 139 kts | 247° |
| 2026-04-21 19:07 | 12.99214 | 80.17423 | 54 ft | 114 kts | 249° |
| 2026-04-21 19:07 | 12.98993 | 80.16838 | 56 ft | 62 kts | 248° |
| 2026-04-21 19:08 | 12.98887 | 80.16552 | 54 ft | 36 kts | 249° |
| 2026-04-21 19:08 | 12.98749 | 80.16361 | 57 ft | 32 kts | 217° |
| 2026-04-21 19:08 | 12.98579 | 80.16227 | 56 ft | 29 kts | 222° |
| 2026-04-21 19:08 | 12.98531 | 80.16144 | 54 ft | 7 kts | 235° |
| 2026-04-21 19:09 | 12.98489 | 80.16134 | 52 ft | 9 kts | 161° |
| 2026-04-21 19:09 | 12.98409 | 80.16166 | 51 ft | 15 kts | 159° |
| 2026-04-21 19:09 | 12.98384 | 80.16209 | 53 ft | 5 kts | 69° |
| 2026-04-21 19:09 | 12.98402 | 80.16256 | 53 ft | 10 kts | 67° |
| 2026-04-21 19:10 | 12.98433 | 80.16335 | 53 ft | 14 kts | 70° |
| 2026-04-21 19:10 | 12.98471 | 80.16441 | 55 ft | 18 kts | 69° |
| 2026-04-21 19:10 | 12.98509 | 80.16545 | 54 ft | 10 kts | 69° |
| 2026-04-21 19:10 | 12.98495 | 80.16586 | 54 ft | 5 kts | 143° |
| 2026-04-21 19:11 | 12.98470 | 80.16598 | 53 ft | 3 kts | 158° |
| 2026-04-21 19:11 | 12.98467 | 80.16599 | 54 ft | 0 kts | 158° |
| 2026-04-21 19:11 | 12.98465 | 80.16600 | 55 ft | 0 kts | 158° |